Terminal Aerodrome Forecast
Issued by NWS Blacksburg, VA

Home | Current Version | Previous Version | Text Only | Print | Product List | Glossary On
Versions: 1 2 3 4 5 6 7 8 9 10 11 12 13 14 15 16 17 18 19 20 21 22 23 24 25 26 27 28 29 30 31 32 33 34 35 36 37 38 39 40 41 42
000
FTUS41 KRNK 200540
TAFROA
TAF
KROA 200540Z 2006/2106 05003KT P6SM SCT017 BKN080
      TEMPO 2010/2013 5SM BR SCT009 OVC017
     FM201300 VRB03KT P6SM BKN080
     FM201900 16006KT P6SM VCTS BKN050CB
     FM202200 VRB03KT P6SM SCT060 BKN200=

USA.gov is the U.S. government's official web portal to all federal, state and local government web resources and services.